sensor_id;sensor_type;location;lat;lon;timestamp;temperature;humidity
55988;DHT22;75964;50.930;4.514;2024-02-28T00:00:31;4.30;93.50
55988;DHT22;75964;50.930;4.514;2024-02-28T00:02:57;4.30;93.30
55988;DHT22;75964;50.930;4.514;2024-02-28T00:05:22;4.30;93.20
55988;DHT22;75964;50.930;4.514;2024-02-28T00:07:48;4.30;93.30
55988;DHT22;75964;50.930;4.514;2024-02-28T00:10:25;4.20;93.40
55988;DHT22;75964;50.930;4.514;2024-02-28T00:12:51;4.40;93.50
55988;DHT22;75964;50.930;4.514;2024-02-28T00:15:16;4.50;93.20
55988;DHT22;75964;50.930;4.514;2024-02-28T00:17:42;4.50;92.90
55988;DHT22;75964;50.930;4.514;2024-02-28T00:20:08;4.40;93.10
55988;DHT22;75964;50.930;4.514;2024-02-28T00:22:37;4.50;93.30
55988;DHT22;75964;50.930;4.514;2024-02-28T00:25:04;4.50;93.40
55988;DHT22;75964;50.930;4.514;2024-02-28T00:27:32;4.40;93.40
55988;DHT22;75964;50.930;4.514;2024-02-28T00:29:59;4.40;93.40
55988;DHT22;75964;50.930;4.514;2024-02-28T00:32:24;4.50;93.50
55988;DHT22;75964;50.930;4.514;2024-02-28T00:34:50;4.50;93.50
55988;DHT22;75964;50.930;4.514;2024-02-28T00:37:16;4.60;93.60
55988;DHT22;75964;50.930;4.514;2024-02-28T00:39:44;4.40;93.50
55988;DHT22;75964;50.930;4.514;2024-02-28T00:42:10;4.40;93.60
55988;DHT22;75964;50.930;4.514;2024-02-28T00:44:35;4.30;93.50
55988;DHT22;75964;50.930;4.514;2024-02-28T00:47:01;4.30;93.50
55988;DHT22;75964;50.930;4.514;2024-02-28T00:49:27;4.30;93.50
55988;DHT22;75964;50.930;4.514;2024-02-28T00:51:52;4.30;93.40
55988;DHT22;75964;50.930;4.514;2024-02-28T00:54:18;4.20;93.30
55988;DHT22;75964;50.930;4.514;2024-02-28T00:56:44;4.10;93.40
55988;DHT22;75964;50.930;4.514;2024-02-28T00:59:09;4.10;93.20
55988;DHT22;75964;50.930;4.514;2024-02-28T01:01:38;4.10;93.40
55988;DHT22;75964;50.930;4.514;2024-02-28T01:04:03;4.20;93.30
55988;DHT22;75964;50.930;4.514;2024-02-28T01:06:29;4.30;93.10
55988;DHT22;75964;50.930;4.514;2024-02-28T01:08:55;4.40;93.00
55988;DHT22;75964;50.930;4.514;2024-02-28T01:11:20;4.30;92.90
55988;DHT22;75964;50.930;4.514;2024-02-28T01:13:46;4.20;92.90
55988;DHT22;75964;50.930;4.514;2024-02-28T01:16:12;4.10;93.00
55988;DHT22;75964;50.930;4.514;2024-02-28T01:18:37;4.10;93.40
55988;DHT22;75964;50.930;4.514;2024-02-28T01:21:03;4.10;93.10
55988;DHT22;75964;50.930;4.514;2024-02-28T01:23:29;4.10;92.70
55988;DHT22;75964;50.930;4.514;2024-02-28T01:25:54;4.00;93.30
55988;DHT22;75964;50.930;4.514;2024-02-28T01:28:20;3.90;93.30
55988;DHT22;75964;50.930;4.514;2024-02-28T01:30:48;3.70;93.40
55988;DHT22;75964;50.930;4.514;2024-02-28T01:33:14;3.70;93.70
55988;DHT22;75964;50.930;4.514;2024-02-28T01:35:40;3.70;93.60
55988;DHT22;75964;50.930;4.514;2024-02-28T01:38:05;3.80;93.40
55988;DHT22;75964;50.930;4.514;2024-02-28T01:40:31;3.80;93.50
55988;DHT22;75964;50.930;4.514;2024-02-28T01:43:07;3.70;93.50
55988;DHT22;75964;50.930;4.514;2024-02-28T01:45:32;3.70;93.70
55988;DHT22;75964;50.930;4.514;2024-02-28T01:47:58;3.70;93.80
55988;DHT22;75964;50.930;4.514;2024-02-28T01:50:24;3.70;93.80
55988;DHT22;75964;50.930;4.514;2024-02-28T01:52:50;3.80;93.70
55988;DHT22;75964;50.930;4.514;2024-02-28T01:55:16;3.80;93.50
55988;DHT22;75964;50.930;4.514;2024-02-28T01:57:42;3.80;93.60
55988;DHT22;75964;50.930;4.514;2024-02-28T02:00:08;3.90;93.60
55988;DHT22;75964;50.930;4.514;2024-02-28T02:02:34;4.00;93.50
55988;DHT22;75964;50.930;4.514;2024-02-28T02:05:00;4.00;93.50
55988;DHT22;75964;50.930;4.514;2024-02-28T02:07:25;3.90;93.40
55988;DHT22;75964;50.930;4.514;2024-02-28T02:09:52;4.00;93.30
55988;DHT22;75964;50.930;4.514;2024-02-28T02:12:18;3.90;93.30
55988;DHT22;75964;50.930;4.514;2024-02-28T02:14:50;3.90;93.20
55988;DHT22;75964;50.930;4.514;2024-02-28T02:17:22;3.90;93.10
55988;DHT22;75964;50.930;4.514;2024-02-28T02:19:47;3.90;93.00
55988;DHT22;75964;50.930;4.514;2024-02-28T02:22:13;4.00;93.10
55988;DHT22;75964;50.930;4.514;2024-02-28T02:24:40;4.10;93.00
55988;DHT22;75964;50.930;4.514;2024-02-28T02:27:06;4.00;92.90
55988;DHT22;75964;50.930;4.514;2024-02-28T02:29:31;3.70;93.10
55988;DHT22;75964;50.930;4.514;2024-02-28T02:31:57;3.80;93.40
55988;DHT22;75964;50.930;4.514;2024-02-28T02:34:23;3.60;93.50
55988;DHT22;75964;50.930;4.514;2024-02-28T02:36:48;3.50;93.50
55988;DHT22;75964;50.930;4.514;2024-02-28T02:39:14;3.70;93.70
55988;DHT22;75964;50.930;4.514;2024-02-28T02:41:39;3.60;93.50
55988;DHT22;75964;50.930;4.514;2024-02-28T02:44:07;3.60;93.40
55988;DHT22;75964;50.930;4.514;2024-02-28T02:46:32;3.60;93.10
55988;DHT22;75964;50.930;4.514;2024-02-28T02:48:58;3.60;93.00
55988;DHT22;75964;50.930;4.514;2024-02-28T02:51:24;3.60;92.90
55988;DHT22;75964;50.930;4.514;2024-02-28T02:53:50;3.70;92.90
55988;DHT22;75964;50.930;4.514;2024-02-28T02:56:16;3.60;92.90
55988;DHT22;75964;50.930;4.514;2024-02-28T02:58:42;3.60;92.90
55988;DHT22;75964;50.930;4.514;2024-02-28T03:01:08;3.40;92.90
55988;DHT22;75964;50.930;4.514;2024-02-28T03:03:34;3.40;93.00
55988;DHT22;75964;50.930;4.514;2024-02-28T03:06:00;3.40;93.10
55988;DHT22;75964;50.930;4.514;2024-02-28T03:08:25;3.50;92.90
55988;DHT22;75964;50.930;4.514;2024-02-28T03:10:51;3.40;92.90
55988;DHT22;75964;50.930;4.514;2024-02-28T03:13:17;3.20;93.10
55988;DHT22;75964;50.930;4.514;2024-02-28T03:15:44;3.00;93.40
55988;DHT22;75964;50.930;4.514;2024-02-28T03:18:09;3.10;93.60
55988;DHT22;75964;50.930;4.514;2024-02-28T03:20:35;3.00;93.60
55988;DHT22;75964;50.930;4.514;2024-02-28T03:23:04;3.10;93.40
55988;DHT22;75964;50.930;4.514;2024-02-28T03:25:32;3.20;93.50
55988;DHT22;75964;50.930;4.514;2024-02-28T03:27:58;3.30;93.30
55988;DHT22;75964;50.930;4.514;2024-02-28T03:30:25;3.40;93.60
55988;DHT22;75964;50.930;4.514;2024-02-28T03:32:50;3.20;93.40
55988;DHT22;75964;50.930;4.514;2024-02-28T03:35:16;3.00;93.40
55988;DHT22;75964;50.930;4.514;2024-02-28T03:37:42;3.10;93.30
55988;DHT22;75964;50.930;4.514;2024-02-28T03:40:08;3.30;93.20
55988;DHT22;75964;50.930;4.514;2024-02-28T03:42:33;3.30;93.10
55988;DHT22;75964;50.930;4.514;2024-02-28T03:44:59;3.30;93.10
55988;DHT22;75964;50.930;4.514;2024-02-28T03:47:25;3.10;93.20
55988;DHT22;75964;50.930;4.514;2024-02-28T03:49:51;3.10;93.00
55988;DHT22;75964;50.930;4.514;2024-02-28T03:52:17;3.20;93.00
55988;DHT22;75964;50.930;4.514;2024-02-28T03:54:43;3.10;93.00
55988;DHT22;75964;50.930;4.514;2024-02-28T03:57:09;3.00;93.10
55988;DHT22;75964;50.930;4.514;2024-02-28T04:02:03;2.60;93.90
55988;DHT22;75964;50.930;4.514;2024-02-28T04:04:28;2.50;94.10
55988;DHT22;75964;50.930;4.514;2024-02-28T04:06:54;2.60;94.40
55988;DHT22;75964;50.930;4.514;2024-02-28T04:09:20;2.50;94.40
55988;DHT22;75964;50.930;4.514;2024-02-28T04:11:46;2.50;95.00
55988;DHT22;75964;50.930;4.514;2024-02-28T04:14:11;2.80;94.50
55988;DHT22;75964;50.930;4.514;2024-02-28T04:16:44;2.80;93.90
55988;DHT22;75964;50.930;4.514;2024-02-28T04:19:10;2.80;93.90
55988;DHT22;75964;50.930;4.514;2024-02-28T04:21:36;2.80;93.90
55988;DHT22;75964;50.930;4.514;2024-02-28T04:24:02;3.10;93.70
55988;DHT22;75964;50.930;4.514;2024-02-28T04:26:28;2.90;93.50
55988;DHT22;75964;50.930;4.514;2024-02-28T04:28:55;2.80;93.60
55988;DHT22;75964;50.930;4.514;2024-02-28T04:31:21;3.00;93.40
55988;DHT22;75964;50.930;4.514;2024-02-28T04:33:47;3.10;93.30
55988;DHT22;75964;50.930;4.514;2024-02-28T04:36:12;2.90;93.20
55988;DHT22;75964;50.930;4.514;2024-02-28T04:38:38;2.70;93.20
55988;DHT22;75964;50.930;4.514;2024-02-28T04:41:04;2.70;93.90
55988;DHT22;75964;50.930;4.514;2024-02-28T04:43:29;2.50;94.20
55988;DHT22;75964;50.930;4.514;2024-02-28T04:45:55;2.50;94.50
55988;DHT22;75964;50.930;4.514;2024-02-28T04:48:21;2.50;94.70
55988;DHT22;75964;50.930;4.514;2024-02-28T04:50:46;2.60;94.60
55988;DHT22;75964;50.930;4.514;2024-02-28T04:53:12;2.40;94.80
55988;DHT22;75964;50.930;4.514;2024-02-28T04:55:37;2.40;95.10
55988;DHT22;75964;50.930;4.514;2024-02-28T04:58:03;2.50;95.00
55988;DHT22;75964;50.930;4.514;2024-02-28T05:00:29;2.50;94.90
55988;DHT22;75964;50.930;4.514;2024-02-28T05:02:54;2.50;95.00
55988;DHT22;75964;50.930;4.514;2024-02-28T05:05:20;2.70;95.10
55988;DHT22;75964;50.930;4.514;2024-02-28T05:07:46;2.60;95.20
55988;DHT22;75964;50.930;4.514;2024-02-28T05:10:11;2.60;95.40
55988;DHT22;75964;50.930;4.514;2024-02-28T05:12:37;2.60;95.50
55988;DHT22;75964;50.930;4.514;2024-02-28T05:15:03;2.60;95.50
55988;DHT22;75964;50.930;4.514;2024-02-28T05:17:29;2.60;95.60
55988;DHT22;75964;50.930;4.514;2024-02-28T05:19:55;2.70;95.30
55988;DHT22;75964;50.930;4.514;2024-02-28T05:22:22;2.80;95.20
55988;DHT22;75964;50.930;4.514;2024-02-28T05:24:48;2.80;95.00
55988;DHT22;75964;50.930;4.514;2024-02-28T05:27:14;2.90;94.70
55988;DHT22;75964;50.930;4.514;2024-02-28T05:29:41;2.80;95.10
55988;DHT22;75964;50.930;4.514;2024-02-28T05:32:08;2.80;94.90
55988;DHT22;75964;50.930;4.514;2024-02-28T05:34:34;2.90;94.80
55988;DHT22;75964;50.930;4.514;2024-02-28T05:37:00;3.00;94.70
55988;DHT22;75964;50.930;4.514;2024-02-28T05:39:27;3.00;94.40
55988;DHT22;75964;50.930;4.514;2024-02-28T05:41:54;3.00;94.60
55988;DHT22;75964;50.930;4.514;2024-02-28T05:44:20;3.10;94.20
55988;DHT22;75964;50.930;4.514;2024-02-28T05:46:46;3.10;94.00
55988;DHT22;75964;50.930;4.514;2024-02-28T05:49:11;2.90;94.10
55988;DHT22;75964;50.930;4.514;2024-02-28T05:51:37;2.80;94.30
55988;DHT22;75964;50.930;4.514;2024-02-28T05:54:03;2.70;94.50
55988;DHT22;75964;50.930;4.514;2024-02-28T05:56:29;2.70;94.50
55988;DHT22;75964;50.930;4.514;2024-02-28T05:58:55;2.80;94.60
55988;DHT22;75964;50.930;4.514;2024-02-28T06:01:21;2.90;94.20
55988;DHT22;75964;50.930;4.514;2024-02-28T06:03:50;3.00;94.10
55988;DHT22;75964;50.930;4.514;2024-02-28T06:06:16;3.00;93.90
55988;DHT22;75964;50.930;4.514;2024-02-28T06:08:43;2.90;93.90
55988;DHT22;75964;50.930;4.514;2024-02-28T06:11:08;2.80;94.20
55988;DHT22;75964;50.930;4.514;2024-02-28T06:13:35;2.70;94.60
55988;DHT22;75964;50.930;4.514;2024-02-28T06:16:01;2.70;94.90
55988;DHT22;75964;50.930;4.514;2024-02-28T06:18:27;2.70;95.00
55988;DHT22;75964;50.930;4.514;2024-02-28T06:20:54;2.70;95.00
55988;DHT22;75964;50.930;4.514;2024-02-28T06:23:21;2.70;95.40
55988;DHT22;75964;50.930;4.514;2024-02-28T06:25:59;2.70;95.40
55988;DHT22;75964;50.930;4.514;2024-02-28T06:28:24;2.80;95.10
55988;DHT22;75964;50.930;4.514;2024-02-28T06:30:50;2.90;95.00
55988;DHT22;75964;50.930;4.514;2024-02-28T06:33:16;2.90;94.80
55988;DHT22;75964;50.930;4.514;2024-02-28T06:35:41;3.00;94.80
55988;DHT22;75964;50.930;4.514;2024-02-28T06:38:07;3.20;94.60
55988;DHT22;75964;50.930;4.514;2024-02-28T06:40:33;3.30;94.20
55988;DHT22;75964;50.930;4.514;2024-02-28T06:43:00;3.20;94.20
55988;DHT22;75964;50.930;4.514;2024-02-28T06:45:25;3.40;94.20
55988;DHT22;75964;50.930;4.514;2024-02-28T06:48:03;3.50;94.10
55988;DHT22;75964;50.930;4.514;2024-02-28T06:50:29;3.40;94.00
55988;DHT22;75964;50.930;4.514;2024-02-28T06:52:55;3.50;93.90
55988;DHT22;75964;50.930;4.514;2024-02-28T06:55:20;3.50;94.10
55988;DHT22;75964;50.930;4.514;2024-02-28T06:57:47;3.40;94.40
55988;DHT22;75964;50.930;4.514;2024-02-28T07:00:12;3.40;94.50
55988;DHT22;75964;50.930;4.514;2024-02-28T07:02:40;3.40;94.50
55988;DHT22;75964;50.930;4.514;2024-02-28T07:05:05;3.40;94.90
55988;DHT22;75964;50.930;4.514;2024-02-28T07:07:32;3.60;95.30
55988;DHT22;75964;50.930;4.514;2024-02-28T07:09:58;3.70;95.30
55988;DHT22;75964;50.930;4.514;2024-02-28T07:12:24;3.80;95.40
55988;DHT22;75964;50.930;4.514;2024-02-28T07:14:52;3.80;95.50
55988;DHT22;75964;50.930;4.514;2024-02-28T07:17:18;3.90;95.50
55988;DHT22;75964;50.930;4.514;2024-02-28T07:19:44;3.90;95.70
55988;DHT22;75964;50.930;4.514;2024-02-28T07:22:09;3.90;95.80
55988;DHT22;75964;50.930;4.514;2024-02-28T07:24:35;4.00;96.00
55988;DHT22;75964;50.930;4.514;2024-02-28T07:27:02;4.10;95.90
55988;DHT22;75964;50.930;4.514;2024-02-28T07:29:28;4.00;95.80
55988;DHT22;75964;50.930;4.514;2024-02-28T07:31:54;4.10;96.00
55988;DHT22;75964;50.930;4.514;2024-02-28T07:34:20;4.20;96.20
55988;DHT22;75964;50.930;4.514;2024-02-28T07:36:45;4.20;96.20
55988;DHT22;75964;50.930;4.514;2024-02-28T07:39:11;4.30;96.50
55988;DHT22;75964;50.930;4.514;2024-02-28T07:41:39;4.30;96.50
55988;DHT22;75964;50.930;4.514;2024-02-28T07:44:05;4.40;96.60
55988;DHT22;75964;50.930;4.514;2024-02-28T07:46:30;4.60;96.50
55988;DHT22;75964;50.930;4.514;2024-02-28T07:48:56;4.60;96.40
55988;DHT22;75964;50.930;4.514;2024-02-28T07:51:22;4.70;96.70
55988;DHT22;75964;50.930;4.514;2024-02-28T07:53:48;4.70;96.60
55988;DHT22;75964;50.930;4.514;2024-02-28T07:56:17;4.80;96.70
55988;DHT22;75964;50.930;4.514;2024-02-28T07:58:44;4.80;96.80
55988;DHT22;75964;50.930;4.514;2024-02-28T08:01:10;4.70;96.80
55988;DHT22;75964;50.930;4.514;2024-02-28T08:03:36;4.80;96.90
55988;DHT22;75964;50.930;4.514;2024-02-28T08:06:01;4.80;97.10
55988;DHT22;75964;50.930;4.514;2024-02-28T08:08:27;4.70;97.20
55988;DHT22;75964;50.930;4.514;2024-02-28T08:10:53;4.90;97.40
55988;DHT22;75964;50.930;4.514;2024-02-28T08:13:19;4.90;97.30
55988;DHT22;75964;50.930;4.514;2024-02-28T08:15:45;4.90;97.20
55988;DHT22;75964;50.930;4.514;2024-02-28T08:18:11;5.10;97.20
55988;DHT22;75964;50.930;4.514;2024-02-28T08:20:37;5.20;97.10
55988;DHT22;75964;50.930;4.514;2024-02-28T08:23:05;5.10;97.10
55988;DHT22;75964;50.930;4.514;2024-02-28T08:25:31;5.30;97.30
55988;DHT22;75964;50.930;4.514;2024-02-28T08:27:56;5.30;97.20
55988;DHT22;75964;50.930;4.514;2024-02-28T08:30:22;5.40;97.30
55988;DHT22;75964;50.930;4.514;2024-02-28T08:32:48;5.40;97.10
55988;DHT22;75964;50.930;4.514;2024-02-28T08:35:14;5.50;97.00
55988;DHT22;75964;50.930;4.514;2024-02-28T08:37:40;5.50;97.20
55988;DHT22;75964;50.930;4.514;2024-02-28T08:40:06;5.60;97.30
55988;DHT22;75964;50.930;4.514;2024-02-28T08:42:32;5.60;97.00
55988;DHT22;75964;50.930;4.514;2024-02-28T08:44:59;5.70;97.10
55988;DHT22;75964;50.930;4.514;2024-02-28T08:47:25;5.80;97.10
55988;DHT22;75964;50.930;4.514;2024-02-28T08:49:54;5.80;96.80
55988;DHT22;75964;50.930;4.514;2024-02-28T08:52:20;5.80;97.10
55988;DHT22;75964;50.930;4.514;2024-02-28T08:54:46;5.90;97.50
55988;DHT22;75964;50.930;4.514;2024-02-28T08:57:13;6.10;97.20
55988;DHT22;75964;50.930;4.514;2024-02-28T08:59:38;6.10;97.30
55988;DHT22;75964;50.930;4.514;2024-02-28T09:02:06;6.20;97.10
55988;DHT22;75964;50.930;4.514;2024-02-28T09:04:31;6.40;97.20
55988;DHT22;75964;50.930;4.514;2024-02-28T09:06:57;6.40;97.20
55988;DHT22;75964;50.930;4.514;2024-02-28T09:09:23;6.50;96.80
55988;DHT22;75964;50.930;4.514;2024-02-28T09:11:48;6.60;96.60
55988;DHT22;75964;50.930;4.514;2024-02-28T09:14:14;6.60;96.70
55988;DHT22;75964;50.930;4.514;2024-02-28T09:16:40;6.60;96.50
55988;DHT22;75964;50.930;4.514;2024-02-28T09:19:05;6.50;96.90
55988;DHT22;75964;50.930;4.514;2024-02-28T09:21:31;6.50;96.90
55988;DHT22;75964;50.930;4.514;2024-02-28T09:23:57;6.50;97.20
55988;DHT22;75964;50.930;4.514;2024-02-28T09:26:23;6.50;97.30
55988;DHT22;75964;50.930;4.514;2024-02-28T09:28:48;6.60;97.50
55988;DHT22;75964;50.930;4.514;2024-02-28T09:31:14;6.60;97.10
55988;DHT22;75964;50.930;4.514;2024-02-28T09:33:43;6.60;97.00
55988;DHT22;75964;50.930;4.514;2024-02-28T09:36:08;6.70;97.10
55988;DHT22;75964;50.930;4.514;2024-02-28T09:38:34;6.70;96.90
55988;DHT22;75964;50.930;4.514;2024-02-28T09:41:03;6.80;96.90
55988;DHT22;75964;50.930;4.514;2024-02-28T09:43:31;6.80;96.90
55988;DHT22;75964;50.930;4.514;2024-02-28T09:45:59;6.80;96.80
55988;DHT22;75964;50.930;4.514;2024-02-28T09:48:29;6.90;96.90
55988;DHT22;75964;50.930;4.514;2024-02-28T09:50:57;6.90;96.80
55988;DHT22;75964;50.930;4.514;2024-02-28T09:53:23;6.90;96.90
55988;DHT22;75964;50.930;4.514;2024-02-28T09:55:50;6.90;96.80
55988;DHT22;75964;50.930;4.514;2024-02-28T09:58:16;6.90;97.10
55988;DHT22;75964;50.930;4.514;2024-02-28T10:00:43;6.90;96.80
55988;DHT22;75964;50.930;4.514;2024-02-28T10:03:19;6.90;97.10
55988;DHT22;75964;50.930;4.514;2024-02-28T10:05:46;6.90;97.20
55988;DHT22;75964;50.930;4.514;2024-02-28T10:08:12;7.10;97.20
55988;DHT22;75964;50.930;4.514;2024-02-28T10:10:45;6.90;96.60
55988;DHT22;75964;50.930;4.514;2024-02-28T10:13:11;6.90;96.90
55988;DHT22;75964;50.930;4.514;2024-02-28T10:15:38;6.90;96.80
55988;DHT22;75964;50.930;4.514;2024-02-28T10:18:04;7.00;96.90
55988;DHT22;75964;50.930;4.514;2024-02-28T10:20:33;7.10;96.70
55988;DHT22;75964;50.930;4.514;2024-02-28T10:22:59;7.20;96.90
55988;DHT22;75964;50.930;4.514;2024-02-28T10:25:25;7.10;96.40
55988;DHT22;75964;50.930;4.514;2024-02-28T10:27:51;7.20;96.90
55988;DHT22;75964;50.930;4.514;2024-02-28T10:30:19;7.30;96.30
55988;DHT22;75964;50.930;4.514;2024-02-28T10:32:50;7.50;96.60
55988;DHT22;75964;50.930;4.514;2024-02-28T10:35:20;7.70;96.40
55988;DHT22;75964;50.930;4.514;2024-02-28T10:37:46;7.70;96.00
55988;DHT22;75964;50.930;4.514;2024-02-28T10:40:13;7.60;95.80
55988;DHT22;75964;50.930;4.514;2024-02-28T10:42:43;7.70;95.90
55988;DHT22;75964;50.930;4.514;2024-02-28T10:45:12;7.70;95.50
55988;DHT22;75964;50.930;4.514;2024-02-28T10:47:41;7.80;96.20
55988;DHT22;75964;50.930;4.514;2024-02-28T10:50:07;7.70;95.10
55988;DHT22;75964;50.930;4.514;2024-02-28T10:52:34;7.80;95.60
55988;DHT22;75964;50.930;4.514;2024-02-28T10:55:01;7.90;95.50
55988;DHT22;75964;50.930;4.514;2024-02-28T10:57:29;7.90;95.20
55988;DHT22;75964;50.930;4.514;2024-02-28T10:59:56;8.00;95.90
55988;DHT22;75964;50.930;4.514;2024-02-28T11:02:24;8.30;95.60
55988;DHT22;75964;50.930;4.514;2024-02-28T11:04:53;8.20;94.70
55988;DHT22;75964;50.930;4.514;2024-02-28T11:07:19;8.20;95.20
55988;DHT22;75964;50.930;4.514;2024-02-28T11:09:46;8.30;94.90
55988;DHT22;75964;50.930;4.514;2024-02-28T11:12:28;8.40;95.00
55988;DHT22;75964;50.930;4.514;2024-02-28T11:15:02;8.30;94.70
55988;DHT22;75964;50.930;4.514;2024-02-28T11:17:31;8.30;94.80
55988;DHT22;75964;50.930;4.514;2024-02-28T11:19:57;8.30;94.90
55988;DHT22;75964;50.930;4.514;2024-02-28T11:22:23;8.40;95.00
55988;DHT22;75964;50.930;4.514;2024-02-28T11:24:48;8.50;94.80
55988;DHT22;75964;50.930;4.514;2024-02-28T11:27:17;8.60;94.50
55988;DHT22;75964;50.930;4.514;2024-02-28T11:29:43;8.60;94.30
55988;DHT22;75964;50.930;4.514;2024-02-28T11:32:12;8.50;94.80
55988;DHT22;75964;50.930;4.514;2024-02-28T11:34:39;8.50;94.80
55988;DHT22;75964;50.930;4.514;2024-02-28T11:37:06;8.60;94.80
55988;DHT22;75964;50.930;4.514;2024-02-28T11:39:34;8.80;94.30
55988;DHT22;75964;50.930;4.514;2024-02-28T11:42:13;8.70;94.50
55988;DHT22;75964;50.930;4.514;2024-02-28T11:44:39;8.80;94.50
55988;DHT22;75964;50.930;4.514;2024-02-28T11:47:08;8.80;94.50
55988;DHT22;75964;50.930;4.514;2024-02-28T11:49:36;9.00;94.70
55988;DHT22;75964;50.930;4.514;2024-02-28T11:52:03;8.80;94.30
55988;DHT22;75964;50.930;4.514;2024-02-28T11:54:29;8.90;94.20
55988;DHT22;75964;50.930;4.514;2024-02-28T11:56:55;8.80;94.50
55988;DHT22;75964;50.930;4.514;2024-02-28T11:59:21;8.90;94.80
55988;DHT22;75964;50.930;4.514;2024-02-28T12:01:46;8.90;94.70
55988;DHT22;75964;50.930;4.514;2024-02-28T12:04:13;8.90;94.30
55988;DHT22;75964;50.930;4.514;2024-02-28T12:06:39;8.90;94.40
55988;DHT22;75964;50.930;4.514;2024-02-28T12:09:08;9.00;94.60
55988;DHT22;75964;50.930;4.514;2024-02-28T12:11:35;9.10;94.30
55988;DHT22;75964;50.930;4.514;2024-02-28T12:14:04;9.30;94.70
55988;DHT22;75964;50.930;4.514;2024-02-28T12:16:32;9.30;94.20
55988;DHT22;75964;50.930;4.514;2024-02-28T12:18:58;9.30;94.50
55988;DHT22;75964;50.930;4.514;2024-02-28T12:21:23;9.40;94.20
55988;DHT22;75964;50.930;4.514;2024-02-28T12:23:50;9.50;94.30
55988;DHT22;75964;50.930;4.514;2024-02-28T12:26:19;9.40;93.70
55988;DHT22;75964;50.930;4.514;2024-02-28T12:28:48;9.50;94.00
55988;DHT22;75964;50.930;4.514;2024-02-28T12:31:14;9.50;93.70
55988;DHT22;75964;50.930;4.514;2024-02-28T12:33:40;9.40;93.80
55988;DHT22;75964;50.930;4.514;2024-02-28T12:36:06;9.50;94.00
55988;DHT22;75964;50.930;4.514;2024-02-28T12:38:32;9.50;93.60
55988;DHT22;75964;50.930;4.514;2024-02-28T12:41:07;9.50;93.50
55988;DHT22;75964;50.930;4.514;2024-02-28T12:43:33;9.60;93.40
55988;DHT22;75964;50.930;4.514;2024-02-28T12:45:59;9.60;93.30
55988;DHT22;75964;50.930;4.514;2024-02-28T12:48:25;9.70;93.60
55988;DHT22;75964;50.930;4.514;2024-02-28T12:50:51;9.70;93.30
55988;DHT22;75964;50.930;4.514;2024-02-28T12:53:16;9.90;93.10
55988;DHT22;75964;50.930;4.514;2024-02-28T12:55:42;10.00;93.00
55988;DHT22;75964;50.930;4.514;2024-02-28T12:58:10;10.00;92.90
55988;DHT22;75964;50.930;4.514;2024-02-28T13:00:36;10.00;93.40
55988;DHT22;75964;50.930;4.514;2024-02-28T13:03:02;10.00;92.90
55988;DHT22;75964;50.930;4.514;2024-02-28T13:05:29;9.90;92.30
55988;DHT22;75964;50.930;4.514;2024-02-28T13:07:55;10.00;92.30
55988;DHT22;75964;50.930;4.514;2024-02-28T13:10:20;10.00;92.60
55988;DHT22;75964;50.930;4.514;2024-02-28T13:12:47;10.20;92.90
55988;DHT22;75964;50.930;4.514;2024-02-28T13:15:13;10.20;92.10
55988;DHT22;75964;50.930;4.514;2024-02-28T13:17:39;10.20;91.80
55988;DHT22;75964;50.930;4.514;2024-02-28T13:20:07;10.20;92.50
55988;DHT22;75964;50.930;4.514;2024-02-28T13:22:33;10.20;92.50
55988;DHT22;75964;50.930;4.514;2024-02-28T13:24:58;10.20;92.30
55988;DHT22;75964;50.930;4.514;2024-02-28T13:27:25;10.20;91.80
55988;DHT22;75964;50.930;4.514;2024-02-28T13:29:51;10.20;92.20
55988;DHT22;75964;50.930;4.514;2024-02-28T13:32:17;10.20;92.30
55988;DHT22;75964;50.930;4.514;2024-02-28T13:34:42;10.30;92.10
55988;DHT22;75964;50.930;4.514;2024-02-28T13:37:08;10.30;92.20
55988;DHT22;75964;50.930;4.514;2024-02-28T13:39:34;10.50;91.90
55988;DHT22;75964;50.930;4.514;2024-02-28T13:42:03;10.40;92.20
55988;DHT22;75964;50.930;4.514;2024-02-28T13:44:32;10.50;91.90
55988;DHT22;75964;50.930;4.514;2024-02-28T13:46:57;10.40;92.20
55988;DHT22;75964;50.930;4.514;2024-02-28T13:49:23;10.50;91.90
55988;DHT22;75964;50.930;4.514;2024-02-28T13:51:49;10.60;91.90
55988;DHT22;75964;50.930;4.514;2024-02-28T13:54:15;10.80;91.80
55988;DHT22;75964;50.930;4.514;2024-02-28T13:56:41;10.80;91.30
55988;DHT22;75964;50.930;4.514;2024-02-28T13:59:06;10.80;90.70
55988;DHT22;75964;50.930;4.514;2024-02-28T14:01:32;10.90;90.70
55988;DHT22;75964;50.930;4.514;2024-02-28T14:03:58;10.90;90.80
55988;DHT22;75964;50.930;4.514;2024-02-28T14:06:24;10.90;90.60
55988;DHT22;75964;50.930;4.514;2024-02-28T14:08:50;11.00;90.50
55988;DHT22;75964;50.930;4.514;2024-02-28T14:11:17;11.20;90.10
55988;DHT22;75964;50.930;4.514;2024-02-28T14:13:43;11.10;90.10
55988;DHT22;75964;50.930;4.514;2024-02-28T14:16:09;11.00;90.60
55988;DHT22;75964;50.930;4.514;2024-02-28T14:18:34;10.80;90.10
55988;DHT22;75964;50.930;4.514;2024-02-28T14:21:00;10.70;90.50
55988;DHT22;75964;50.930;4.514;2024-02-28T14:23:27;10.60;90.50
55988;DHT22;75964;50.930;4.514;2024-02-28T14:25:53;10.60;90.50
55988;DHT22;75964;50.930;4.514;2024-02-28T14:28:19;10.60;90.80
55988;DHT22;75964;50.930;4.514;2024-02-28T14:30:45;10.60;90.80
55988;DHT22;75964;50.930;4.514;2024-02-28T14:33:12;10.80;90.80
55988;DHT22;75964;50.930;4.514;2024-02-28T14:35:38;10.80;90.80
55988;DHT22;75964;50.930;4.514;2024-02-28T14:38:05;10.70;90.50
55988;DHT22;75964;50.930;4.514;2024-02-28T14:40:32;10.70;90.50
55988;DHT22;75964;50.930;4.514;2024-02-28T14:42:57;10.80;90.60
55988;DHT22;75964;50.930;4.514;2024-02-28T14:45:23;10.80;90.60
55988;DHT22;75964;50.930;4.514;2024-02-28T14:47:51;10.80;90.20
55988;DHT22;75964;50.930;4.514;2024-02-28T14:50:17;11.10;89.70
55988;DHT22;75964;50.930;4.514;2024-02-28T14:52:43;10.90;89.90
55988;DHT22;75964;50.930;4.514;2024-02-28T14:55:10;10.90;90.20
55988;DHT22;75964;50.930;4.514;2024-02-28T14:57:37;11.00;90.00
55988;DHT22;75964;50.930;4.514;2024-02-28T15:00:03;11.00;88.30
55988;DHT22;75964;50.930;4.514;2024-02-28T15:02:34;10.90;88.70
55988;DHT22;75964;50.930;4.514;2024-02-28T15:05:00;10.90;88.30
55988;DHT22;75964;50.930;4.514;2024-02-28T15:07:25;10.90;89.50
55988;DHT22;75964;50.930;4.514;2024-02-28T15:09:51;10.90;90.00
55988;DHT22;75964;50.930;4.514;2024-02-28T15:12:17;11.00;89.00
55988;DHT22;75964;50.930;4.514;2024-02-28T15:14:43;10.90;88.70
55988;DHT22;75964;50.930;4.514;2024-02-28T15:17:09;10.90;89.20
55988;DHT22;75964;50.930;4.514;2024-02-28T15:19:35;10.90;89.60
55988;DHT22;75964;50.930;4.514;2024-02-28T15:22:00;10.80;89.60
55988;DHT22;75964;50.930;4.514;2024-02-28T15:24:26;10.80;89.00
55988;DHT22;75964;50.930;4.514;2024-02-28T15:26:52;10.70;89.30
55988;DHT22;75964;50.930;4.514;2024-02-28T15:29:18;10.70;90.20
55988;DHT22;75964;50.930;4.514;2024-02-28T15:31:45;10.70;90.30
55988;DHT22;75964;50.930;4.514;2024-02-28T15:34:11;10.60;90.00
55988;DHT22;75964;50.930;4.514;2024-02-28T15:36:36;10.60;89.60
55988;DHT22;75964;50.930;4.514;2024-02-28T15:39:03;10.70;90.20